Creek Data

    Home     View Charts     View Raw Data     Messages

ID Distance Battery Voltage Battery Current Internal Temp Internal Humidity External Temp Solar Input rssi snr Time Stamp Record
66193 15.1 3.95 -5 51 52 53 0 -71 8 02/13/2026 07:45 PM 49001
66192 15.1 3.81 -5 52 53 53 0 -72 8 02/13/2026 07:30 PM 49000
66191 15.1 3.84 -5 52 53 53 0 -72 8 02/13/2026 07:15 PM 48999
66190 15.1 3.83 -5 53 54 53 0 -72 8 02/13/2026 07:00 PM 48998
66189 15.1 3.83 -5 54 54 54 0 -71 8 02/13/2026 06:45 PM 48997
66188 15.1 3.82 -5 54 55 55 0 -71 7 02/13/2026 06:30 PM 48996
66187 15.1 3.83 -5 55 56 55 0 -72 8 02/13/2026 06:15 PM 48995
66186 15.1 3.81 -5 57 56 56 0.7 -71 8 02/13/2026 06:00 PM 48994
66185 15.1 3.86 -10 60 56 58 3.2 -72 7 02/13/2026 05:45 PM 48993
66184 15.1 3.93 -13 63 54 60 4.5 -73 7 02/13/2026 05:30 PM 48992
66183 15.1 3.96 14 64 55 62 4.5 -72 8 02/13/2026 05:15 PM 48991
66182 15.2 4.10 10 65 56 62 4.5 -72 6 02/13/2026 05:00 PM 48990
66181 15.2 3.94 0 67 56 62 5.1 -72 7 02/13/2026 04:45 PM 48989
66180 15.2 3.94 0 71 53 65 5.1 -72 8 02/13/2026 04:30 PM 48988
66179 15.1 3.94 0 74 52 67 5.1 -73 8 02/13/2026 04:15 PM 48987
66178 15.1 3.94 0 74 52 67 5.1 -73 8 02/13/2026 04:00 PM 48986
66177 15.2 3.94 0 79 48 68 5.1 -73 8 02/13/2026 03:30 PM 48984
66176 15.3 3.94 0 79 48 67 5.1 -73 8 02/13/2026 03:15 PM 48983
66175 15.3 3.96 0 79 47 66 5.1 -72 8 02/13/2026 03:00 PM 48982
66174 15.3 3.94 0 83 44 66 5.1 -73 8 02/13/2026 02:45 PM 48981
66173 15.3 3.94 0 82 44 68 5.1 -72 7 02/13/2026 02:30 PM 48980
66172 15.3 3.95 0 79 45 65 5.1 -72 7 02/13/2026 02:15 PM 48979
66171 15.3 3.94 0 78 45 64 5.1 -72 8 02/13/2026 02:00 PM 48978
66170 15.3 4.01 0 77 45 65 5.1 -72 8 02/13/2026 01:45 PM 48977
66169 15.3 3.94 0 76 45 63 5.1 -73 8 02/13/2026 01:30 PM 48976